Lannion-Côte de Granit Airport

Airport
ICAO code: 
LFRO
IATA Code: 
LAI
Summary
ICAO Region: 
EUR
Territory: 
Location: 
, Bretagne
Serving: 
Lannion
Elevation: 
290 ft
Coordinates: 
Aerial View: 
48° 45' 15.761" N, 3° 28' 17.962" W
Metar
Observation
LFRO 020300Z AUTO 35010KT 310V030 9999 SCT035 07/00 Q1013
Station
Lannion / Servel
Date/Time
2021-12-02 03:00:00
Wind direction
350°
Wind speed
10 kts
Lowest cloud amount
scattered clouds
Temperature
7°C
Dew point
0°C
Humidity
61%
QNH
1013 hPa
Weather condition
n/a

Runways

Designator Length Width Surface Rops
11/29 1700 45 ASP Yes/Yes
Airport map: 
Aerial View: 

SKYbrary Partners:

Safety knowledge contributed by: